createdAt,value
2022-11-21T00:01:27.218Z,97.80
2022-11-21T00:03:55.572Z,105.15
2022-11-21T00:06:24.345Z,127.57
2022-11-21T00:08:53.028Z,109.68
2022-11-21T00:11:21.308Z,111.88
2022-11-21T00:13:49.561Z,111.95
2022-11-21T00:16:19.377Z,109.88
2022-11-21T00:18:47.651Z,105.03
2022-11-21T00:21:17.241Z,103.30
2022-11-21T00:23:46.680Z,108.82
2022-11-21T00:26:17.395Z,110.50
2022-11-21T00:28:46.294Z,121.70
2022-11-21T00:31:22.062Z,98.85
2022-11-21T00:33:50.394Z,107.22
2022-11-21T00:36:18.811Z,120.78
2022-11-21T00:38:47.105Z,107.78
2022-11-21T00:41:15.489Z,112.68
2022-11-21T00:43:44.015Z,109.25
2022-11-21T00:46:12.411Z,111.78
2022-11-21T00:48:42.347Z,114.40
2022-11-21T00:51:10.697Z,119.20
2022-11-21T00:53:38.978Z,113.60
2022-11-21T00:56:07.351Z,103.68
2022-11-21T00:58:35.594Z,115.82
2022-11-21T01:01:06.363Z,106.03
2022-11-21T01:03:35.428Z,120.30
2022-11-21T01:06:07.748Z,109.22
2022-11-21T01:08:37.356Z,114.80
2022-11-21T01:11:06.070Z,117.15
2022-11-21T01:13:34.847Z,113.47
2022-11-21T01:16:07.573Z,105.60
2022-11-21T01:18:36.442Z,124.05
2022-11-21T01:21:08.203Z,111.93
2022-11-21T01:23:36.617Z,119.25
2022-11-21T01:26:06.211Z,118.57
2022-11-21T01:28:34.795Z,112.05
2022-11-21T01:31:07.623Z,119.15
2022-11-21T01:33:36.557Z,123.35
2022-11-21T01:36:11.585Z,113.22
2022-11-21T01:38:40.233Z,110.55
2022-11-21T01:41:08.747Z,110.40
2022-11-21T01:43:37.561Z,112.45
2022-11-21T01:46:13.184Z,114.47
2022-11-21T01:48:47.431Z,106.65
2022-11-21T01:51:25.649Z,108.97
2022-11-21T01:53:58.903Z,102.53
2022-11-21T01:56:28.193Z,111.70
2022-11-21T01:59:00.637Z,114.03
2022-11-21T02:01:29.887Z,97.75
2022-11-21T02:03:59.691Z,112.35
2022-11-21T02:06:29.549Z,116.95
2022-11-21T02:08:58.962Z,113.25
2022-11-21T02:11:32.172Z,116.25
2022-11-21T02:14:01.378Z,113.78
2022-11-21T02:16:30.031Z,114.43
2022-11-21T02:18:58.457Z,116.32
2022-11-21T02:21:39.789Z,104.35
2022-11-21T02:24:15.747Z,119.68
2022-11-21T02:26:49.932Z,105.53
2022-11-21T02:29:18.652Z,118.82
2022-11-21T02:31:47.460Z,114.22
2022-11-21T02:34:15.916Z,118.30
2022-11-21T02:36:47.661Z,118.05
2022-11-21T02:39:20.862Z,106.38
2022-11-21T02:42:02.364Z,116.30
2022-11-21T02:44:38.537Z,113.95
2022-11-21T02:47:06.890Z,114.05
2022-11-21T02:49:42.101Z,115.68
2022-11-21T02:52:10.430Z,112.30
2022-11-21T02:54:38.780Z,120.35
2022-11-21T02:57:08.598Z,101.43
2022-11-21T02:59:36.990Z,110.78
2022-11-21T03:02:05.346Z,112.85
2022-11-21T03:04:33.681Z,107.05
2022-11-21T03:07:02.102Z,115.50
2022-11-21T03:09:30.432Z,116.60
2022-11-21T03:11:58.657Z,101.45
2022-11-21T03:14:28.711Z,102.70
2022-11-21T03:16:57.204Z,110.13
2022-11-21T03:19:25.721Z,103.65
2022-11-21T03:21:54.078Z,105.80
2022-11-21T03:24:22.506Z,109.35
2022-11-21T03:26:51.008Z,112.05
2022-11-21T03:29:20.672Z,109.40
2022-11-21T03:31:50.808Z,97.95
2022-11-21T03:34:19.108Z,109.55
2022-11-21T03:36:50.043Z,108.82
2022-11-21T03:39:20.670Z,104.15
2022-11-21T03:41:49.372Z,106.20
2022-11-21T03:44:20.591Z,113.53
2022-11-21T03:46:50.971Z,111.82
2022-11-21T03:49:19.465Z,106.60
2022-11-21T03:51:50.317Z,111.50
2022-11-21T03:54:19.270Z,115.10
2022-11-21T03:56:48.310Z,92.43
2022-11-21T03:59:17.231Z,100.68
2022-11-21T04:01:53.151Z,114.47
2022-11-21T04:04:22.714Z,112.10
2022-11-21T04:06:52.279Z,107.50
2022-11-21T04:09:21.436Z,108.95
2022-11-21T04:11:55.459Z,110.30
2022-11-21T04:14:41.938Z,119.80
2022-11-21T04:17:35.399Z,109.10
2022-11-21T04:20:17.184Z,116.70
2022-11-21T04:22:59.351Z,104.93
2022-11-21T04:25:29.095Z,106.78
2022-11-21T04:34:24.753Z,103.38
2022-11-21T04:36:58.965Z,105.85
2022-11-21T04:43:42.837Z,98.88
2022-11-21T04:46:18.316Z,104.97
2022-11-21T04:49:22.736Z,105.75
2022-11-21T04:52:58.669Z,116.57
2022-11-21T04:56:11.005Z,94.88
2022-11-21T05:35:51.961Z,109.30
2022-11-21T05:56:46.648Z,98.97
2022-11-21T06:08:32.813Z,95.10
2022-11-21T06:25:07.856Z,92.80
2022-11-21T06:54:38.701Z,100.07
2022-11-21T07:01:43.482Z,100.28
2022-11-21T07:29:00.146Z,116.43
2022-11-21T07:36:01.695Z,101.97
2022-11-21T07:38:56.333Z,127.95
2022-11-21T07:41:47.153Z,118.20
2022-11-21T07:44:20.995Z,122.25
2022-11-21T07:46:49.307Z,117.38
2022-11-21T07:49:17.824Z,112.85
2022-11-21T07:51:46.514Z,110.30
2022-11-21T07:54:14.804Z,99.97
2022-11-21T07:56:43.241Z,122.63
2022-11-21T07:59:13.186Z,118.95
2022-11-21T08:01:45.993Z,106.43
2022-11-21T08:04:19.115Z,107.30
2022-11-21T08:06:48.988Z,115.95
2022-11-21T08:09:17.334Z,125.00
2022-11-21T08:11:52.892Z,108.13
2022-11-21T08:14:21.407Z,105.75
2022-11-21T08:16:53.268Z,105.82
2022-11-21T08:19:21.614Z,116.70
2022-11-21T08:21:49.860Z,110.75
2022-11-21T08:24:18.240Z,108.38
2022-11-21T08:26:46.843Z,109.78
2022-11-21T08:29:16.642Z,106.38
2022-11-21T08:31:45.769Z,105.32
2022-11-21T08:34:15.515Z,95.25
2022-11-21T08:36:43.838Z,99.45
2022-11-21T08:39:12.193Z,98.10
2022-11-21T08:41:57.938Z,98.40
2022-11-21T08:44:28.346Z,98.50
2022-11-21T08:46:57.131Z,87.50
2022-11-21T08:49:27.227Z,90.13
2022-11-21T08:51:55.926Z,98.80
2022-11-21T08:54:25.699Z,87.63
2022-11-21T08:56:55.088Z,103.75
2022-11-21T08:59:23.449Z,83.85
2022-11-21T09:01:52.968Z,89.00
2022-11-21T09:04:21.532Z,85.40
2022-11-21T09:06:51.318Z,77.15
2022-11-21T09:09:25.106Z,77.88
2022-11-21T09:11:54.159Z,84.85
2022-11-21T09:14:40.517Z,83.30
2022-11-21T09:17:30.479Z,71.28
2022-11-21T09:20:23.639Z,77.53
2022-11-21T09:22:59.129Z,78.32
2022-11-21T09:25:27.569Z,61.65
2022-11-21T09:27:59.905Z,71.25
2022-11-21T09:30:28.215Z,69.03
2022-11-21T09:33:00.572Z,68.82
2022-11-21T09:35:29.291Z,59.47
2022-11-21T09:38:06.678Z,71.78
2022-11-21T09:40:47.633Z,58.47
2022-11-21T09:43:27.646Z,66.55
2022-11-21T09:46:04.177Z,60.00
2022-11-21T09:48:35.836Z,61.13
2022-11-21T09:51:08.793Z,63.10
2022-11-21T09:53:41.338Z,82.05
2022-11-21T09:56:15.116Z,87.15
2022-11-21T09:58:47.178Z,93.75
2022-11-21T10:01:17.128Z,91.28
2022-11-21T10:03:48.000Z,83.63
2022-11-21T10:06:22.067Z,76.28
2022-11-21T10:08:58.860Z,71.07
2022-11-21T10:11:35.960Z,78.30
2022-11-21T10:14:20.549Z,72.82
2022-11-21T10:16:54.940Z,70.97
2022-11-21T10:19:38.958Z,65.50
2022-11-21T10:22:39.827Z,76.70
2022-11-21T10:25:15.266Z,73.13
2022-11-21T10:27:50.244Z,66.40
2022-11-21T10:30:20.711Z,76.75
2022-11-21T10:32:51.925Z,79.88
2022-11-21T10:35:23.828Z,85.25
2022-11-21T10:37:54.378Z,75.28
2022-11-21T10:40:38.341Z,81.88
2022-11-21T10:43:28.978Z,71.07
2022-11-21T10:45:59.659Z,76.82
2022-11-21T10:48:28.104Z,75.40
2022-11-21T10:51:11.951Z,71.43
2022-11-21T10:54:04.652Z,73.88
2022-11-21T10:56:38.240Z,75.47
2022-11-21T10:59:23.428Z,65.72
2022-11-21T11:02:25.922Z,67.28
2022-11-21T11:05:20.639Z,71.00
2022-11-21T11:08:03.416Z,63.92
2022-11-21T11:10:32.982Z,80.55
2022-11-21T11:16:08.795Z,64.95
2022-11-21T11:18:49.334Z,77.03
2022-11-21T11:21:19.997Z,67.30
2022-11-21T11:23:50.272Z,63.40
2022-11-21T11:26:56.336Z,69.45
2022-11-21T11:29:27.768Z,58.85
2022-11-21T11:32:01.893Z,63.67
2022-11-21T11:34:58.594Z,63.40
2022-11-21T11:37:40.294Z,58.40
2022-11-21T11:40:20.277Z,59.83
2022-11-21T11:43:25.128Z,61.75
2022-11-21T11:46:41.944Z,58.95
2022-11-21T11:49:21.102Z,57.85
2022-11-21T11:51:55.609Z,58.67
2022-11-21T11:54:28.349Z,54.60
2022-11-21T11:57:01.222Z,62.33
2022-11-21T12:00:01.298Z,58.38
2022-11-21T12:02:49.335Z,59.03
2022-11-21T12:09:30.394Z,58.50
2022-11-21T12:12:36.559Z,60.67
2022-11-21T12:16:11.955Z,62.85
2022-11-21T12:19:52.826Z,63.33
2022-11-21T12:27:15.137Z,67.72
2022-11-21T12:30:29.901Z,56.75
2022-11-21T12:33:09.282Z,57.03
2022-11-21T12:36:22.000Z,64.97
2022-11-21T12:39:42.033Z,62.88
2022-11-21T12:43:01.134Z,61.40
2022-11-21T12:46:05.415Z,64.40
2022-11-21T12:49:29.326Z,64.07
2022-11-21T12:52:56.504Z,59.35
2022-11-21T12:55:40.160Z,63.92
2022-11-21T12:58:47.115Z,61.20
2022-11-21T13:02:42.644Z,71.97
2022-11-21T13:04:56.690Z,58.10
2022-11-21T13:07:36.945Z,57.50
2022-11-21T13:10:46.722Z,61.45
2022-11-21T13:13:36.218Z,54.45
2022-11-21T13:16:14.490Z,64.22
2022-11-21T13:18:53.838Z,61.85
2022-11-21T13:22:14.463Z,64.57
2022-11-21T13:29:46.557Z,59.08
2022-11-21T13:32:39.419Z,54.95
2022-11-21T13:36:15.447Z,54.42
2022-11-21T13:42:35.275Z,56.53
2022-11-21T13:45:40.581Z,58.08
2022-11-21T13:48:52.245Z,52.95
2022-11-21T13:51:50.642Z,56.60
2022-11-21T13:54:43.062Z,53.72
2022-11-21T13:57:30.904Z,56.25
2022-11-21T14:00:22.940Z,63.30
2022-11-21T14:03:41.247Z,59.50
2022-11-21T14:06:32.525Z,66.80
2022-11-21T14:09:28.176Z,55.45
2022-11-21T14:11:59.518Z,60.72
2022-11-21T14:14:44.753Z,70.30
2022-11-21T14:17:33.422Z,71.18
2022-11-21T14:20:14.907Z,75.30
2022-11-21T14:22:47.624Z,67.25
2022-11-21T14:25:19.667Z,66.53
2022-11-21T14:27:50.915Z,70.90
2022-11-21T14:30:34.441Z,66.05
2022-11-21T14:33:25.819Z,65.03
2022-11-21T14:36:06.661Z,65.00
2022-11-21T14:38:42.177Z,76.18
2022-11-21T14:41:31.546Z,66.18
2022-11-21T14:44:19.929Z,56.63
2022-11-21T14:46:52.490Z,72.38
2022-11-21T14:49:25.617Z,65.65
2022-11-21T14:52:25.663Z,75.38
2022-11-21T14:57:54.578Z,68.28
2022-11-21T15:00:57.273Z,72.65
2022-11-21T15:03:26.526Z,76.72
2022-11-21T15:06:06.828Z,73.07
2022-11-21T15:11:59.107Z,74.72
2022-11-21T15:15:07.909Z,72.35
2022-11-21T15:21:32.312Z,77.63
2022-11-21T15:28:39.635Z,91.43
2022-11-21T15:31:20.310Z,96.57
2022-11-21T15:34:34.714Z,97.35
2022-11-21T15:37:44.406Z,94.25
2022-11-21T15:41:22.777Z,97.57
2022-11-21T15:44:22.425Z,104.65
2022-11-21T15:47:26.778Z,98.22
2022-11-21T15:50:01.231Z,101.15
2022-11-21T15:52:31.121Z,101.15
2022-11-21T15:54:59.941Z,98.53
2022-11-21T15:57:32.273Z,104.13
2022-11-21T16:00:04.443Z,109.43
2022-11-21T16:03:03.850Z,107.32
2022-11-21T16:05:39.498Z,97.07
2022-11-21T16:08:41.706Z,103.97
2022-11-21T16:11:25.758Z,110.20
2022-11-21T16:14:20.025Z,103.13
2022-11-21T16:16:49.920Z,108.50
2022-11-21T16:19:21.782Z,100.07
2022-11-21T16:22:09.999Z,100.05
2022-11-21T16:24:47.497Z,98.95
2022-11-21T16:27:16.717Z,105.40
2022-11-21T16:29:47.675Z,94.53
2022-11-21T16:32:24.036Z,90.90
2022-11-21T16:35:16.694Z,89.20
2022-11-21T16:38:00.450Z,103.22
2022-11-21T16:40:34.184Z,97.35
2022-11-21T16:43:18.994Z,92.97
2022-11-21T16:45:49.416Z,91.65
2022-11-21T16:48:18.796Z,96.90
2022-11-21T16:50:47.822Z,102.40
2022-11-21T16:53:17.609Z,99.35
2022-11-21T16:55:49.285Z,121.97
2022-11-21T16:58:18.041Z,93.32
2022-11-21T17:01:06.235Z,100.45
2022-11-21T17:04:02.037Z,94.07
2022-11-21T17:06:33.975Z,102.05
2022-11-21T17:09:07.857Z,96.60
2022-11-21T17:14:37.948Z,98.03
2022-11-21T17:17:09.093Z,97.25
2022-11-21T17:19:39.219Z,97.65
2022-11-21T17:22:32.610Z,108.07
2022-11-21T17:25:01.113Z,94.78
2022-11-21T17:27:40.477Z,94.93
2022-11-21T17:30:11.022Z,87.50
2022-11-21T17:32:39.429Z,102.47
2022-11-21T17:35:11.431Z,87.28
2022-11-21T17:37:41.364Z,92.55
2022-11-21T17:40:12.188Z,101.32
2022-11-21T17:42:43.453Z,92.63
2022-11-21T17:45:14.757Z,91.78
2022-11-21T17:47:44.196Z,90.40
2022-11-21T17:50:16.940Z,108.53
2022-11-21T17:52:47.040Z,96.00
2022-11-21T17:55:16.074Z,95.43
2022-11-21T17:57:44.728Z,103.03
2022-11-21T18:00:15.789Z,91.68
2022-11-21T18:02:44.332Z,88.10
2022-11-21T18:05:12.860Z,83.35
2022-11-21T18:07:42.735Z,90.95
2022-11-21T18:10:47.683Z,84.40
2022-11-21T18:13:16.498Z,91.95
2022-11-21T18:15:45.274Z,87.45
2022-11-21T18:18:16.857Z,83.53
2022-11-21T18:20:45.349Z,82.78
2022-11-21T18:23:15.170Z,75.25
2022-11-21T18:25:43.625Z,94.32
2022-11-21T18:28:12.257Z,89.78
2022-11-21T18:30:41.044Z,91.03
2022-11-21T18:33:10.163Z,89.78
2022-11-21T18:35:40.760Z,79.50
2022-11-21T18:38:09.202Z,86.75
2022-11-21T18:40:39.996Z,85.38
2022-11-21T18:43:08.925Z,79.15
2022-11-21T18:45:37.391Z,82.95
2022-11-21T18:48:06.526Z,82.47
2022-11-21T18:50:35.813Z,77.18
2022-11-21T18:53:04.133Z,84.63
2022-11-21T18:55:34.196Z,94.65
2022-11-21T18:58:04.052Z,85.43
2022-11-21T19:00:32.598Z,99.30
2022-11-21T19:03:00.891Z,89.28
2022-11-21T19:05:29.314Z,99.72
2022-11-21T19:07:57.932Z,92.80
2022-11-21T19:10:42.688Z,88.25
2022-11-21T19:13:13.452Z,84.82
2022-11-21T19:15:42.991Z,82.50
2022-11-21T19:18:12.237Z,78.72
2022-11-21T19:20:42.292Z,73.70
2022-11-21T19:23:10.709Z,84.97
2022-11-21T19:25:39.110Z,73.80
2022-11-21T19:28:07.753Z,84.55
2022-11-21T19:30:37.628Z,76.30
2022-11-21T19:33:14.814Z,80.68
2022-11-21T19:35:44.417Z,75.03
2022-11-21T19:38:13.088Z,76.93
2022-11-21T19:40:55.492Z,68.22
2022-11-21T19:43:24.489Z,79.45
2022-11-21T19:46:03.474Z,77.15
2022-11-21T19:48:32.349Z,80.30
2022-11-21T19:51:01.985Z,72.75
2022-11-21T19:53:35.143Z,76.22
2022-11-21T19:56:14.064Z,77.32
2022-11-21T19:58:43.698Z,78.38
2022-11-21T20:01:15.811Z,81.05
2022-11-21T20:03:46.170Z,82.85
2022-11-21T20:06:17.302Z,80.07
2022-11-21T20:08:49.347Z,70.00
2022-11-21T20:11:17.969Z,78.18
2022-11-21T20:13:47.296Z,79.88
2022-11-21T20:16:22.554Z,77.18
2022-11-21T20:18:52.012Z,76.68
2022-11-21T20:21:21.437Z,78.95
2022-11-21T20:23:50.833Z,87.07
2022-11-21T20:26:21.070Z,86.80
2022-11-21T20:28:51.398Z,87.20
2022-11-21T20:31:38.450Z,89.97
2022-11-21T20:34:10.302Z,85.70
2022-11-21T20:36:54.268Z,82.55
2022-11-21T20:39:22.737Z,86.05
2022-11-21T20:41:53.515Z,79.63
2022-11-21T20:47:12.737Z,83.22
2022-11-21T20:49:53.305Z,78.45
2022-11-21T20:55:10.965Z,68.68
2022-11-21T20:57:46.890Z,76.43
2022-11-21T21:00:20.520Z,72.25
2022-11-21T21:02:50.592Z,78.03
2022-11-21T21:05:35.819Z,67.43
2022-11-21T21:08:14.024Z,68.75
2022-11-21T21:11:04.651Z,73.15
2022-11-21T21:13:36.104Z,75.68
2022-11-21T21:16:08.246Z,75.15
2022-11-21T21:19:06.409Z,74.07
2022-11-21T21:22:05.161Z,74.78
2022-11-21T21:24:43.753Z,74.55
2022-11-21T21:27:19.735Z,77.22
2022-11-21T21:29:56.876Z,77.68
2022-11-21T21:32:33.774Z,86.78
2022-11-21T21:35:02.606Z,84.50
2022-11-21T21:37:48.687Z,74.50
2022-11-21T21:40:19.438Z,75.13
2022-11-21T21:42:47.949Z,79.75
2022-11-21T21:45:16.621Z,77.25
2022-11-21T21:47:45.292Z,83.53
2022-11-21T21:50:15.968Z,81.63
2022-11-21T21:52:44.660Z,83.82
2022-11-21T21:55:13.348Z,81.03
2022-11-21T21:57:47.203Z,76.80
2022-11-21T22:00:27.120Z,84.10
2022-11-21T22:02:55.702Z,77.47
2022-11-21T22:05:24.549Z,89.22
2022-11-21T22:07:53.442Z,88.10
2022-11-21T22:10:22.026Z,84.82
2022-11-21T22:12:52.046Z,85.45
2022-11-21T22:15:20.718Z,87.65
2022-11-21T22:17:49.289Z,79.40
2022-11-21T22:20:19.918Z,79.15
2022-11-21T22:22:48.398Z,79.20
2022-11-21T22:25:16.896Z,78.15
2022-11-21T22:27:45.511Z,82.68
2022-11-21T22:30:15.761Z,81.88
2022-11-21T22:32:48.766Z,84.53
2022-11-21T22:35:17.358Z,72.28
2022-11-21T22:37:51.465Z,71.18
2022-11-21T22:40:20.247Z,77.68
2022-11-21T22:42:51.051Z,83.45
2022-11-21T22:45:35.801Z,74.63
2022-11-21T22:48:04.677Z,76.03
2022-11-21T22:50:36.802Z,77.75
2022-11-21T22:53:10.772Z,75.57
2022-11-21T22:55:39.246Z,76.30
2022-11-21T22:58:08.096Z,78.28
2022-11-21T23:00:38.149Z,65.88
2022-11-21T23:03:06.578Z,80.38
2022-11-21T23:05:34.964Z,79.15
2022-11-21T23:08:03.335Z,69.05
2022-11-21T23:10:32.119Z,76.93
2022-11-21T23:13:00.965Z,83.22
2022-11-21T23:15:29.463Z,75.45
2022-11-21T23:18:15.180Z,81.72
2022-11-21T23:20:44.746Z,75.85
2022-11-21T23:23:13.124Z,77.05
2022-11-21T23:25:41.493Z,77.13
2022-11-21T23:28:10.286Z,75.93
2022-11-21T23:30:38.992Z,80.80
2022-11-21T23:33:07.523Z,80.93
2022-11-21T23:35:37.678Z,81.32
2022-11-21T23:38:06.504Z,72.68
2022-11-21T23:40:35.164Z,80.72
2022-11-21T23:43:05.661Z,73.57
2022-11-21T23:45:34.756Z,75.82
2022-11-21T23:48:03.644Z,72.07
2022-11-21T23:50:32.895Z,75.70
2022-11-21T23:53:02.810Z,76.07
2022-11-21T23:55:31.357Z,75.53
2022-11-21T23:58:00.517Z,74.05
